sensor_id;sensor_type;location;lat;lon;timestamp;P1;durP1;ratioP1;P2;durP2;ratioP2
7495;SDS011;3789;47.064;15.482;2024-02-15T00:00:22;5.87;;;4.70;;
7495;SDS011;3789;47.064;15.482;2024-02-15T00:03:00;5.53;;;4.40;;
7495;SDS011;3789;47.064;15.482;2024-02-15T00:05:30;4.90;;;3.47;;
7495;SDS011;3789;47.064;15.482;2024-02-15T00:08:06;3.93;;;2.63;;
7495;SDS011;3789;47.064;15.482;2024-02-15T00:10:42;5.43;;;2.60;;
7495;SDS011;3789;47.064;15.482;2024-02-15T00:13:17;2.57;;;2.33;;
7495;SDS011;3789;47.064;15.482;2024-02-15T00:15:56;2.27;;;2.07;;
7495;SDS011;3789;47.064;15.482;2024-02-15T00:18:27;4.07;;;2.03;;
7495;SDS011;3789;47.064;15.482;2024-02-15T00:20:58;2.43;;;2.00;;
7495;SDS011;3789;47.064;15.482;2024-02-15T00:23:35;2.97;;;2.30;;
7495;SDS011;3789;47.064;15.482;2024-02-15T00:26:10;4.93;;;2.30;;
7495;SDS011;3789;47.064;15.482;2024-02-15T00:28:48;2.93;;;2.00;;
7495;SDS011;3789;47.064;15.482;2024-02-15T00:31:25;2.57;;;2.20;;
7495;SDS011;3789;47.064;15.482;2024-02-15T00:33:55;4.10;;;2.50;;
7495;SDS011;3789;47.064;15.482;2024-02-15T00:36:25;2.43;;;2.20;;
7495;SDS011;3789;47.064;15.482;2024-02-15T00:38:57;3.73;;;2.30;;
7495;SDS011;3789;47.064;15.482;2024-02-15T00:41:27;3.20;;;2.00;;
7495;SDS011;3789;47.064;15.482;2024-02-15T00:43:57;2.47;;;2.27;;
7495;SDS011;3789;47.064;15.482;2024-02-15T00:46:25;2.77;;;2.10;;
7495;SDS011;3789;47.064;15.482;2024-02-15T00:48:57;2.60;;;2.10;;
7495;SDS011;3789;47.064;15.482;2024-02-15T00:51:27;2.27;;;1.93;;
7495;SDS011;3789;47.064;15.482;2024-02-15T00:53:56;4.07;;;2.40;;
7495;SDS011;3789;47.064;15.482;2024-02-15T00:56:25;3.47;;;3.17;;
7495;SDS011;3789;47.064;15.482;2024-02-15T00:59:00;3.10;;;2.40;;
7495;SDS011;3789;47.064;15.482;2024-02-15T01:01:29;2.80;;;2.10;;
7495;SDS011;3789;47.064;15.482;2024-02-15T01:03:58;2.53;;;2.10;;
7495;SDS011;3789;47.064;15.482;2024-02-15T01:06:29;2.23;;;1.83;;
7495;SDS011;3789;47.064;15.482;2024-02-15T01:09:02;3.37;;;2.00;;
7495;SDS011;3789;47.064;15.482;2024-02-15T01:11:30;2.50;;;2.07;;
7495;SDS011;3789;47.064;15.482;2024-02-15T01:14:05;2.57;;;2.37;;
7495;SDS011;3789;47.064;15.482;2024-02-15T01:16:39;3.63;;;2.20;;
7495;SDS011;3789;47.064;15.482;2024-02-15T01:19:07;3.13;;;2.27;;
7495;SDS011;3789;47.064;15.482;2024-02-15T01:21:38;2.73;;;2.30;;
7495;SDS011;3789;47.064;15.482;2024-02-15T01:24:11;2.50;;;1.80;;
7495;SDS011;3789;47.064;15.482;2024-02-15T01:26:41;2.20;;;2.00;;
7495;SDS011;3789;47.064;15.482;2024-02-15T01:29:12;1.80;;;1.70;;
7495;SDS011;3789;47.064;15.482;2024-02-15T01:31:40;2.90;;;1.93;;
7495;SDS011;3789;47.064;15.482;2024-02-15T01:34:11;2.57;;;1.87;;
7495;SDS011;3789;47.064;15.482;2024-02-15T01:36:48;2.60;;;1.77;;
7495;SDS011;3789;47.064;15.482;2024-02-15T01:39:16;2.70;;;2.33;;
7495;SDS011;3789;47.064;15.482;2024-02-15T01:41:50;2.07;;;1.87;;
7495;SDS011;3789;47.064;15.482;2024-02-15T01:44:22;2.30;;;2.07;;
7495;SDS011;3789;47.064;15.482;2024-02-15T01:46:51;2.33;;;1.90;;
7495;SDS011;3789;47.064;15.482;2024-02-15T01:49:22;3.30;;;2.10;;
7495;SDS011;3789;47.064;15.482;2024-02-15T01:51:50;5.53;;;2.20;;
7495;SDS011;3789;47.064;15.482;2024-02-15T01:54:25;2.23;;;2.03;;
7495;SDS011;3789;47.064;15.482;2024-02-15T01:57:02;3.17;;;2.60;;
7495;SDS011;3789;47.064;15.482;2024-02-15T01:59:32;3.03;;;2.30;;
7495;SDS011;3789;47.064;15.482;2024-02-15T02:02:10;2.67;;;2.20;;
7495;SDS011;3789;47.064;15.482;2024-02-15T02:04:42;2.70;;;2.30;;
7495;SDS011;3789;47.064;15.482;2024-02-15T02:07:09;2.30;;;1.97;;
7495;SDS011;3789;47.064;15.482;2024-02-15T02:09:40;3.43;;;2.47;;
7495;SDS011;3789;47.064;15.482;2024-02-15T02:12:09;2.80;;;2.13;;
7495;SDS011;3789;47.064;15.482;2024-02-15T02:14:38;2.20;;;2.00;;
7495;SDS011;3789;47.064;15.482;2024-02-15T02:17:14;3.43;;;2.10;;
7495;SDS011;3789;47.064;15.482;2024-02-15T02:19:47;2.37;;;2.00;;
7495;SDS011;3789;47.064;15.482;2024-02-15T02:22:18;2.53;;;2.30;;
7495;SDS011;3789;47.064;15.482;2024-02-15T02:25:07;3.20;;;2.23;;
7495;SDS011;3789;47.064;15.482;2024-02-15T02:27:37;2.90;;;2.70;;
7495;SDS011;3789;47.064;15.482;2024-02-15T02:30:05;2.60;;;2.40;;
7495;SDS011;3789;47.064;15.482;2024-02-15T02:32:55;2.03;;;1.90;;
7495;SDS011;3789;47.064;15.482;2024-02-15T02:35:36;3.63;;;2.40;;
7495;SDS011;3789;47.064;15.482;2024-02-15T02:38:03;4.80;;;2.63;;
7495;SDS011;3789;47.064;15.482;2024-02-15T02:40:32;2.50;;;2.30;;
7495;SDS011;3789;47.064;15.482;2024-02-15T02:43:10;3.27;;;2.97;;
7495;SDS011;3789;47.064;15.482;2024-02-15T02:45:40;2.53;;;2.10;;
7495;SDS011;3789;47.064;15.482;2024-02-15T02:48:10;2.13;;;1.70;;
7495;SDS011;3789;47.064;15.482;2024-02-15T02:50:40;1.80;;;1.60;;
7495;SDS011;3789;47.064;15.482;2024-02-15T02:53:12;2.23;;;1.90;;
7495;SDS011;3789;47.064;15.482;2024-02-15T02:55:43;2.03;;;1.87;;
7495;SDS011;3789;47.064;15.482;2024-02-15T02:58:18;3.43;;;2.13;;
7495;SDS011;3789;47.064;15.482;2024-02-15T03:00:48;2.30;;;2.10;;
7495;SDS011;3789;47.064;15.482;2024-02-15T03:03:19;2.30;;;2.10;;
7495;SDS011;3789;47.064;15.482;2024-02-15T03:06:06;2.10;;;1.90;;
7495;SDS011;3789;47.064;15.482;2024-02-15T03:08:34;2.13;;;1.90;;
7495;SDS011;3789;47.064;15.482;2024-02-15T03:11:03;2.93;;;1.87;;
7495;SDS011;3789;47.064;15.482;2024-02-15T03:13:31;3.37;;;1.93;;
7495;SDS011;3789;47.064;15.482;2024-02-15T03:16:03;2.37;;;2.17;;
7495;SDS011;3789;47.064;15.482;2024-02-15T03:18:32;2.50;;;2.30;;
7495;SDS011;3789;47.064;15.482;2024-02-15T03:21:03;2.00;;;1.90;;
7495;SDS011;3789;47.064;15.482;2024-02-15T03:23:33;2.13;;;1.93;;
7495;SDS011;3789;47.064;15.482;2024-02-15T03:26:02;2.73;;;1.90;;
7495;SDS011;3789;47.064;15.482;2024-02-15T03:28:35;2.83;;;2.00;;
7495;SDS011;3789;47.064;15.482;2024-02-15T03:31:13;2.80;;;2.00;;
7495;SDS011;3789;47.064;15.482;2024-02-15T03:33:42;3.33;;;1.90;;
7495;SDS011;3789;47.064;15.482;2024-02-15T03:36:13;2.47;;;1.90;;
7495;SDS011;3789;47.064;15.482;2024-02-15T03:38:42;2.53;;;2.10;;
7495;SDS011;3789;47.064;15.482;2024-02-15T03:41:13;2.53;;;2.33;;
7495;SDS011;3789;47.064;15.482;2024-02-15T03:43:43;2.87;;;2.10;;
7495;SDS011;3789;47.064;15.482;2024-02-15T03:46:10;2.20;;;2.00;;
7495;SDS011;3789;47.064;15.482;2024-02-15T03:48:42;2.47;;;2.27;;
7495;SDS011;3789;47.064;15.482;2024-02-15T03:51:15;2.47;;;2.13;;
7495;SDS011;3789;47.064;15.482;2024-02-15T03:53:51;3.43;;;2.07;;
7495;SDS011;3789;47.064;15.482;2024-02-15T03:56:19;3.73;;;2.37;;
7495;SDS011;3789;47.064;15.482;2024-02-15T03:58:53;2.67;;;2.03;;
7495;SDS011;3789;47.064;15.482;2024-02-15T04:01:27;3.00;;;2.17;;
7495;SDS011;3789;47.064;15.482;2024-02-15T04:03:57;3.80;;;2.10;;
7495;SDS011;3789;47.064;15.482;2024-02-15T04:06:35;4.00;;;2.37;;
7495;SDS011;3789;47.064;15.482;2024-02-15T04:09:08;3.90;;;2.30;;
7495;SDS011;3789;47.064;15.482;2024-02-15T04:11:37;5.57;;;3.10;;
7495;SDS011;3789;47.064;15.482;2024-02-15T04:14:10;6.33;;;3.77;;
7495;SDS011;3789;47.064;15.482;2024-02-15T04:16:40;4.50;;;3.73;;
7495;SDS011;3789;47.064;15.482;2024-02-15T04:19:07;6.40;;;4.30;;
7495;SDS011;3789;47.064;15.482;2024-02-15T04:21:37;4.77;;;3.80;;
7495;SDS011;3789;47.064;15.482;2024-02-15T04:24:07;5.13;;;4.00;;
7495;SDS011;3789;47.064;15.482;2024-02-15T04:26:36;5.37;;;3.40;;
7495;SDS011;3789;47.064;15.482;2024-02-15T04:29:07;9.30;;;4.50;;
7495;SDS011;3789;47.064;15.482;2024-02-15T04:31:37;6.63;;;4.13;;
7495;SDS011;3789;47.064;15.482;2024-02-15T04:34:11;4.40;;;3.23;;
7495;SDS011;3789;47.064;15.482;2024-02-15T04:36:40;3.60;;;3.10;;
7495;SDS011;3789;47.064;15.482;2024-02-15T04:39:16;3.93;;;2.57;;
7495;SDS011;3789;47.064;15.482;2024-02-15T04:41:54;3.33;;;2.60;;
7495;SDS011;3789;47.064;15.482;2024-02-15T04:44:27;3.00;;;2.30;;
7495;SDS011;3789;47.064;15.482;2024-02-15T04:46:55;5.00;;;2.77;;
7495;SDS011;3789;47.064;15.482;2024-02-15T04:49:24;2.90;;;2.50;;
7495;SDS011;3789;47.064;15.482;2024-02-15T04:51:56;2.90;;;2.60;;
7495;SDS011;3789;47.064;15.482;2024-02-15T04:54:29;3.87;;;3.00;;
7495;SDS011;3789;47.064;15.482;2024-02-15T04:57:08;4.87;;;3.20;;
7495;SDS011;3789;47.064;15.482;2024-02-15T04:59:45;5.47;;;3.97;;
7495;SDS011;3789;47.064;15.482;2024-02-15T05:02:18;6.67;;;4.07;;
7495;SDS011;3789;47.064;15.482;2024-02-15T05:04:47;4.80;;;4.30;;
7495;SDS011;3789;47.064;15.482;2024-02-15T05:07:25;4.53;;;3.60;;
7495;SDS011;3789;47.064;15.482;2024-02-15T05:09:57;5.57;;;3.90;;
7495;SDS011;3789;47.064;15.482;2024-02-15T05:12:25;5.40;;;4.23;;
7495;SDS011;3789;47.064;15.482;2024-02-15T05:15:01;6.17;;;4.70;;
7495;SDS011;3789;47.064;15.482;2024-02-15T05:17:41;5.63;;;4.07;;
7495;SDS011;3789;47.064;15.482;2024-02-15T05:20:10;7.53;;;4.23;;
7495;SDS011;3789;47.064;15.482;2024-02-15T05:22:50;6.03;;;3.93;;
7495;SDS011;3789;47.064;15.482;2024-02-15T05:25:19;6.67;;;4.50;;
7495;SDS011;3789;47.064;15.482;2024-02-15T05:27:54;5.10;;;4.00;;
7495;SDS011;3789;47.064;15.482;2024-02-15T05:30:25;5.77;;;4.10;;
7495;SDS011;3789;47.064;15.482;2024-02-15T05:32:54;4.70;;;3.23;;
7495;SDS011;3789;47.064;15.482;2024-02-15T05:35:25;5.03;;;3.23;;
7495;SDS011;3789;47.064;15.482;2024-02-15T05:37:57;5.17;;;3.33;;
7495;SDS011;3789;47.064;15.482;2024-02-15T05:40:34;5.43;;;2.97;;
7495;SDS011;3789;47.064;15.482;2024-02-15T05:43:06;7.40;;;3.00;;
7495;SDS011;3789;47.064;15.482;2024-02-15T05:45:35;4.00;;;2.90;;
7495;SDS011;3789;47.064;15.482;2024-02-15T05:48:05;4.47;;;2.73;;
7495;SDS011;3789;47.064;15.482;2024-02-15T05:50:43;3.00;;;2.60;;
7495;SDS011;3789;47.064;15.482;2024-02-15T05:53:15;3.30;;;2.87;;
7495;SDS011;3789;47.064;15.482;2024-02-15T05:55:45;6.40;;;4.53;;
7495;SDS011;3789;47.064;15.482;2024-02-15T05:58:15;6.33;;;4.77;;
7495;SDS011;3789;47.064;15.482;2024-02-15T06:00:44;7.23;;;4.63;;
7495;SDS011;3789;47.064;15.482;2024-02-15T06:03:17;6.47;;;4.23;;
7495;SDS011;3789;47.064;15.482;2024-02-15T06:05:52;3.50;;;3.20;;
7495;SDS011;3789;47.064;15.482;2024-02-15T06:08:46;3.47;;;3.00;;
7495;SDS011;3789;47.064;15.482;2024-02-15T06:11:18;5.10;;;3.23;;
7495;SDS011;3789;47.064;15.482;2024-02-15T06:13:49;5.43;;;3.17;;
7495;SDS011;3789;47.064;15.482;2024-02-15T06:16:22;7.40;;;3.37;;
7495;SDS011;3789;47.064;15.482;2024-02-15T06:18:58;6.10;;;3.50;;
7495;SDS011;3789;47.064;15.482;2024-02-15T06:21:27;7.37;;;3.50;;
7495;SDS011;3789;47.064;15.482;2024-02-15T06:23:55;5.07;;;2.90;;
7495;SDS011;3789;47.064;15.482;2024-02-15T06:26:32;4.10;;;3.10;;
7495;SDS011;3789;47.064;15.482;2024-02-15T06:29:03;5.27;;;2.90;;
7495;SDS011;3789;47.064;15.482;2024-02-15T06:31:59;5.67;;;3.30;;
7495;SDS011;3789;47.064;15.482;2024-02-15T06:34:49;4.53;;;3.43;;
7495;SDS011;3789;47.064;15.482;2024-02-15T06:37:37;3.27;;;2.80;;
7495;SDS011;3789;47.064;15.482;2024-02-15T06:40:29;4.77;;;3.10;;
7495;SDS011;3789;47.064;15.482;2024-02-15T06:42:59;4.90;;;3.43;;
7495;SDS011;3789;47.064;15.482;2024-02-15T06:45:30;5.40;;;3.30;;
7495;SDS011;3789;47.064;15.482;2024-02-15T06:47:59;4.60;;;3.57;;
7495;SDS011;3789;47.064;15.482;2024-02-15T06:50:28;4.50;;;3.17;;
7495;SDS011;3789;47.064;15.482;2024-02-15T06:52:57;4.00;;;3.40;;
7495;SDS011;3789;47.064;15.482;2024-02-15T06:55:25;5.47;;;3.60;;
7495;SDS011;3789;47.064;15.482;2024-02-15T06:57:55;3.73;;;3.43;;
7495;SDS011;3789;47.064;15.482;2024-02-15T07:00:23;5.77;;;3.87;;
7495;SDS011;3789;47.064;15.482;2024-02-15T07:02:59;4.40;;;3.53;;
7495;SDS011;3789;47.064;15.482;2024-02-15T07:05:29;5.53;;;3.97;;
7495;SDS011;3789;47.064;15.482;2024-02-15T07:08:05;4.10;;;3.50;;
7495;SDS011;3789;47.064;15.482;2024-02-15T07:10:39;4.67;;;3.83;;
7495;SDS011;3789;47.064;15.482;2024-02-15T07:13:07;4.43;;;3.50;;
7495;SDS011;3789;47.064;15.482;2024-02-15T07:15:37;4.33;;;3.60;;
7495;SDS011;3789;47.064;15.482;2024-02-15T07:18:06;4.40;;;3.33;;
7495;SDS011;3789;47.064;15.482;2024-02-15T07:20:41;6.40;;;4.10;;
7495;SDS011;3789;47.064;15.482;2024-02-15T07:23:12;6.07;;;3.43;;
7495;SDS011;3789;47.064;15.482;2024-02-15T07:25:43;7.10;;;4.10;;
7495;SDS011;3789;47.064;15.482;2024-02-15T07:28:17;5.60;;;4.50;;
7495;SDS011;3789;47.064;15.482;2024-02-15T07:30:54;8.77;;;4.70;;
7495;SDS011;3789;47.064;15.482;2024-02-15T07:33:22;5.47;;;3.83;;
7495;SDS011;3789;47.064;15.482;2024-02-15T07:35:54;6.67;;;4.50;;
7495;SDS011;3789;47.064;15.482;2024-02-15T07:38:33;5.50;;;3.83;;
7495;SDS011;3789;47.064;15.482;2024-02-15T07:41:03;5.90;;;4.20;;
7495;SDS011;3789;47.064;15.482;2024-02-15T07:43:34;4.30;;;3.67;;
7495;SDS011;3789;47.064;15.482;2024-02-15T07:46:02;13.53;;;8.80;;
7495;SDS011;3789;47.064;15.482;2024-02-15T07:48:32;12.90;;;8.80;;
7495;SDS011;3789;47.064;15.482;2024-02-15T07:51:01;13.57;;;8.50;;
7495;SDS011;3789;47.064;15.482;2024-02-15T07:53:41;15.97;;;9.40;;
7495;SDS011;3789;47.064;15.482;2024-02-15T07:56:11;16.50;;;9.70;;
7495;SDS011;3789;47.064;15.482;2024-02-15T07:58:47;19.00;;;10.13;;
7495;SDS011;3789;47.064;15.482;2024-02-15T08:01:20;16.33;;;8.97;;
7495;SDS011;3789;47.064;15.482;2024-02-15T08:03:51;13.07;;;9.67;;
7495;SDS011;3789;47.064;15.482;2024-02-15T08:06:21;6.63;;;4.73;;
7495;SDS011;3789;47.064;15.482;2024-02-15T08:08:52;6.93;;;4.20;;
7495;SDS011;3789;47.064;15.482;2024-02-15T08:11:19;6.97;;;4.13;;
7495;SDS011;3789;47.064;15.482;2024-02-15T08:13:53;4.37;;;3.43;;
7495;SDS011;3789;47.064;15.482;2024-02-15T08:16:22;10.40;;;4.63;;
7495;SDS011;3789;47.064;15.482;2024-02-15T08:18:56;7.17;;;5.27;;
7495;SDS011;3789;47.064;15.482;2024-02-15T08:21:30;4.07;;;3.13;;
7495;SDS011;3789;47.064;15.482;2024-02-15T08:24:10;5.53;;;3.57;;
7495;SDS011;3789;47.064;15.482;2024-02-15T08:26:40;6.40;;;3.83;;
7495;SDS011;3789;47.064;15.482;2024-02-15T08:29:08;3.83;;;3.23;;
7495;SDS011;3789;47.064;15.482;2024-02-15T08:31:37;3.90;;;3.30;;
7495;SDS011;3789;47.064;15.482;2024-02-15T08:34:10;3.63;;;3.03;;
7495;SDS011;3789;47.064;15.482;2024-02-15T08:36:41;4.47;;;2.83;;
7495;SDS011;3789;47.064;15.482;2024-02-15T08:39:10;5.63;;;3.00;;
7495;SDS011;3789;47.064;15.482;2024-02-15T08:41:41;5.80;;;2.60;;
7495;SDS011;3789;47.064;15.482;2024-02-15T08:44:10;3.90;;;2.63;;
7495;SDS011;3789;47.064;15.482;2024-02-15T08:46:44;3.10;;;2.80;;
7495;SDS011;3789;47.064;15.482;2024-02-15T08:49:17;4.27;;;3.13;;
7495;SDS011;3789;47.064;15.482;2024-02-15T08:51:46;3.40;;;3.10;;
7495;SDS011;3789;47.064;15.482;2024-02-15T08:54:14;5.57;;;2.73;;
7495;SDS011;3789;47.064;15.482;2024-02-15T08:56:44;4.30;;;3.43;;
7495;SDS011;3789;47.064;15.482;2024-02-15T08:59:15;6.27;;;3.67;;
7495;SDS011;3789;47.064;15.482;2024-02-15T09:01:45;5.73;;;3.60;;
7495;SDS011;3789;47.064;15.482;2024-02-15T09:04:14;6.30;;;4.67;;
7495;SDS011;3789;47.064;15.482;2024-02-15T09:06:43;8.13;;;5.50;;
7495;SDS011;3789;47.064;15.482;2024-02-15T09:09:11;9.87;;;5.33;;
7495;SDS011;3789;47.064;15.482;2024-02-15T09:11:40;11.60;;;5.93;;
7495;SDS011;3789;47.064;15.482;2024-02-15T09:14:09;9.03;;;5.90;;
7495;SDS011;3789;47.064;15.482;2024-02-15T09:16:38;7.53;;;5.20;;
7495;SDS011;3789;47.064;15.482;2024-02-15T09:19:07;11.70;;;6.10;;
7495;SDS011;3789;47.064;15.482;2024-02-15T09:21:36;6.37;;;5.40;;
7495;SDS011;3789;47.064;15.482;2024-02-15T09:24:08;10.03;;;5.03;;
7495;SDS011;3789;47.064;15.482;2024-02-15T09:26:39;9.37;;;4.67;;
7495;SDS011;3789;47.064;15.482;2024-02-15T09:29:06;8.93;;;5.17;;
7495;SDS011;3789;47.064;15.482;2024-02-15T09:31:38;9.70;;;5.33;;
7495;SDS011;3789;47.064;15.482;2024-02-15T09:34:09;7.10;;;5.00;;
7495;SDS011;3789;47.064;15.482;2024-02-15T09:36:39;8.50;;;5.00;;
7495;SDS011;3789;47.064;15.482;2024-02-15T09:39:09;6.70;;;4.87;;
7495;SDS011;3789;47.064;15.482;2024-02-15T09:41:44;8.20;;;5.37;;
7495;SDS011;3789;47.064;15.482;2024-02-15T09:44:11;7.97;;;5.20;;
7495;SDS011;3789;47.064;15.482;2024-02-15T09:46:50;8.13;;;5.40;;
7495;SDS011;3789;47.064;15.482;2024-02-15T09:49:39;7.60;;;5.17;;
7495;SDS011;3789;47.064;15.482;2024-02-15T09:52:08;9.87;;;5.97;;
7495;SDS011;3789;47.064;15.482;2024-02-15T09:54:48;9.33;;;7.03;;
7495;SDS011;3789;47.064;15.482;2024-02-15T09:57:18;7.37;;;5.10;;
7495;SDS011;3789;47.064;15.482;2024-02-15T09:59:50;9.27;;;5.13;;
7495;SDS011;3789;47.064;15.482;2024-02-15T10:02:38;9.97;;;5.80;;
7495;SDS011;3789;47.064;15.482;2024-02-15T10:05:18;10.40;;;6.83;;
7495;SDS011;3789;47.064;15.482;2024-02-15T10:07:49;11.27;;;6.57;;
7495;SDS011;3789;47.064;15.482;2024-02-15T10:10:24;11.57;;;6.67;;
7495;SDS011;3789;47.064;15.482;2024-02-15T10:12:56;7.57;;;5.80;;
7495;SDS011;3789;47.064;15.482;2024-02-15T10:15:32;8.90;;;6.27;;
7495;SDS011;3789;47.064;15.482;2024-02-15T10:18:09;7.57;;;5.70;;
7495;SDS011;3789;47.064;15.482;2024-02-15T10:20:41;9.00;;;6.03;;
7495;SDS011;3789;47.064;15.482;2024-02-15T10:23:27;8.67;;;5.00;;
7495;SDS011;3789;47.064;15.482;2024-02-15T10:25:58;9.50;;;5.60;;
7495;SDS011;3789;47.064;15.482;2024-02-15T10:28:28;8.70;;;5.03;;
7495;SDS011;3789;47.064;15.482;2024-02-15T10:30:57;9.80;;;5.73;;
7495;SDS011;3789;47.064;15.482;2024-02-15T10:33:40;9.57;;;5.90;;
7495;SDS011;3789;47.064;15.482;2024-02-15T10:36:13;7.47;;;5.47;;
7495;SDS011;3789;47.064;15.482;2024-02-15T10:38:45;6.17;;;5.13;;
7495;SDS011;3789;47.064;15.482;2024-02-15T10:41:20;7.70;;;5.47;;
7495;SDS011;3789;47.064;15.482;2024-02-15T10:43:54;8.30;;;5.83;;
7495;SDS011;3789;47.064;15.482;2024-02-15T10:46:24;7.87;;;6.40;;
7495;SDS011;3789;47.064;15.482;2024-02-15T10:48:52;8.00;;;5.30;;
7495;SDS011;3789;47.064;15.482;2024-02-15T10:51:21;10.47;;;6.83;;
7495;SDS011;3789;47.064;15.482;2024-02-15T10:53:55;8.60;;;5.93;;
7495;SDS011;3789;47.064;15.482;2024-02-15T10:56:36;7.93;;;5.50;;
7495;SDS011;3789;47.064;15.482;2024-02-15T10:59:19;9.37;;;5.47;;
7495;SDS011;3789;47.064;15.482;2024-02-15T11:01:54;10.73;;;6.13;;
7495;SDS011;3789;47.064;15.482;2024-02-15T11:04:27;7.63;;;6.40;;
7495;SDS011;3789;47.064;15.482;2024-02-15T11:06:59;10.47;;;5.23;;
7495;SDS011;3789;47.064;15.482;2024-02-15T11:09:33;8.53;;;6.03;;
7495;SDS011;3789;47.064;15.482;2024-02-15T11:12:05;9.60;;;6.27;;
7495;SDS011;3789;47.064;15.482;2024-02-15T11:14:46;11.50;;;5.83;;
7495;SDS011;3789;47.064;15.482;2024-02-15T11:23:06;7.27;;;5.27;;
7495;SDS011;3789;47.064;15.482;2024-02-15T11:25:42;7.93;;;4.80;;
7495;SDS011;3789;47.064;15.482;2024-02-15T11:31:06;6.33;;;4.70;;
7495;SDS011;3789;47.064;15.482;2024-02-15T11:33:37;9.47;;;4.90;;
7495;SDS011;3789;47.064;15.482;2024-02-15T11:36:11;8.13;;;4.50;;
7495;SDS011;3789;47.064;15.482;2024-02-15T11:38:41;6.50;;;4.33;;
7495;SDS011;3789;47.064;15.482;2024-02-15T11:41:20;10.53;;;5.10;;
7495;SDS011;3789;47.064;15.482;2024-02-15T11:44:05;7.87;;;4.80;;
7495;SDS011;3789;47.064;15.482;2024-02-15T11:46:37;7.60;;;4.97;;
7495;SDS011;3789;47.064;15.482;2024-02-15T11:49:14;10.03;;;5.40;;
7495;SDS011;3789;47.064;15.482;2024-02-15T11:52:08;7.73;;;4.93;;
7495;SDS011;3789;47.064;15.482;2024-02-15T11:54:45;6.93;;;4.67;;
7495;SDS011;3789;47.064;15.482;2024-02-15T11:57:16;8.30;;;5.20;;
7495;SDS011;3789;47.064;15.482;2024-02-15T11:59:59;7.23;;;4.67;;
7495;SDS011;3789;47.064;15.482;2024-02-15T12:02:44;8.83;;;4.73;;
7495;SDS011;3789;47.064;15.482;2024-02-15T12:05:31;10.87;;;4.70;;
7495;SDS011;3789;47.064;15.482;2024-02-15T12:08:20;6.93;;;5.20;;
7495;SDS011;3789;47.064;15.482;2024-02-15T12:11:08;6.20;;;4.60;;
7495;SDS011;3789;47.064;15.482;2024-02-15T12:13:55;6.10;;;4.63;;
7495;SDS011;3789;47.064;15.482;2024-02-15T12:16:46;5.53;;;4.43;;
7495;SDS011;3789;47.064;15.482;2024-02-15T12:19:33;7.53;;;4.47;;
7495;SDS011;3789;47.064;15.482;2024-02-15T12:22:01;6.73;;;4.07;;
7495;SDS011;3789;47.064;15.482;2024-02-15T12:24:31;7.80;;;4.20;;
7495;SDS011;3789;47.064;15.482;2024-02-15T12:27:00;4.90;;;4.40;;
7495;SDS011;3789;47.064;15.482;2024-02-15T12:29:33;5.87;;;4.13;;
7495;SDS011;3789;47.064;15.482;2024-02-15T12:32:03;6.57;;;4.33;;
7495;SDS011;3789;47.064;15.482;2024-02-15T12:34:33;7.27;;;4.73;;
7495;SDS011;3789;47.064;15.482;2024-02-15T12:37:07;7.40;;;4.03;;
7495;SDS011;3789;47.064;15.482;2024-02-15T12:39:37;4.77;;;3.70;;
7495;SDS011;3789;47.064;15.482;2024-02-15T12:42:17;5.23;;;3.73;;
7495;SDS011;3789;47.064;15.482;2024-02-15T12:44:49;5.97;;;3.80;;
7495;SDS011;3789;47.064;15.482;2024-02-15T12:47:22;5.90;;;3.50;;
7495;SDS011;3789;47.064;15.482;2024-02-15T12:49:52;6.30;;;3.80;;
7495;SDS011;3789;47.064;15.482;2024-02-15T12:52:38;7.57;;;3.80;;
7495;SDS011;3789;47.064;15.482;2024-02-15T12:55:10;4.77;;;3.57;;
7495;SDS011;3789;47.064;15.482;2024-02-15T12:57:46;5.67;;;3.20;;
7495;SDS011;3789;47.064;15.482;2024-02-15T13:00:24;5.47;;;3.60;;
7495;SDS011;3789;47.064;15.482;2024-02-15T13:03:02;4.13;;;3.40;;
7495;SDS011;3789;47.064;15.482;2024-02-15T13:05:40;7.57;;;3.57;;
7495;SDS011;3789;47.064;15.482;2024-02-15T13:08:17;6.73;;;3.50;;
7495;SDS011;3789;47.064;15.482;2024-02-15T13:10:48;8.43;;;3.43;;
7495;SDS011;3789;47.064;15.482;2024-02-15T13:13:20;4.37;;;3.20;;
7495;SDS011;3789;47.064;15.482;2024-02-15T13:15:50;6.80;;;3.37;;
7495;SDS011;3789;47.064;15.482;2024-02-15T13:18:25;3.47;;;3.17;;
7495;SDS011;3789;47.064;15.482;2024-02-15T13:20:57;4.63;;;2.93;;
7495;SDS011;3789;47.064;15.482;2024-02-15T13:23:29;6.87;;;3.17;;
7495;SDS011;3789;47.064;15.482;2024-02-15T13:26:08;6.60;;;3.33;;
7495;SDS011;3789;47.064;15.482;2024-02-15T13:28:41;4.77;;;3.00;;
7495;SDS011;3789;47.064;15.482;2024-02-15T13:31:11;4.13;;;2.73;;
7495;SDS011;3789;47.064;15.482;2024-02-15T13:33:43;5.33;;;2.73;;
7495;SDS011;3789;47.064;15.482;2024-02-15T13:36:19;2.50;;;2.30;;
7495;SDS011;3789;47.064;15.482;2024-02-15T13:38:52;3.30;;;2.43;;
7495;SDS011;3789;47.064;15.482;2024-02-15T13:41:29;4.47;;;2.60;;
7495;SDS011;3789;47.064;15.482;2024-02-15T13:43:59;3.50;;;2.73;;
7495;SDS011;3789;47.064;15.482;2024-02-15T13:46:36;3.67;;;2.80;;
7495;SDS011;3789;47.064;15.482;2024-02-15T13:49:21;4.00;;;2.60;;
7495;SDS011;3789;47.064;15.482;2024-02-15T13:52:00;6.33;;;2.80;;
7495;SDS011;3789;47.064;15.482;2024-02-15T13:54:31;3.47;;;2.57;;
7495;SDS011;3789;47.064;15.482;2024-02-15T13:57:00;3.40;;;2.50;;
7495;SDS011;3789;47.064;15.482;2024-02-15T13:59:39;5.17;;;2.83;;
7495;SDS011;3789;47.064;15.482;2024-02-15T14:02:07;3.57;;;2.77;;
7495;SDS011;3789;47.064;15.482;2024-02-15T14:04:36;2.80;;;2.40;;
7495;SDS011;3789;47.064;15.482;2024-02-15T14:07:06;4.40;;;3.10;;
7495;SDS011;3789;47.064;15.482;2024-02-15T14:09:40;3.43;;;2.33;;
7495;SDS011;3789;47.064;15.482;2024-02-15T14:12:10;3.87;;;2.63;;
7495;SDS011;3789;47.064;15.482;2024-02-15T14:14:42;3.60;;;2.87;;
7495;SDS011;3789;47.064;15.482;2024-02-15T14:17:19;2.40;;;2.20;;
7495;SDS011;3789;47.064;15.482;2024-02-15T14:19:49;3.97;;;2.20;;
7495;SDS011;3789;47.064;15.482;2024-02-15T14:22:28;3.50;;;2.23;;
7495;SDS011;3789;47.064;15.482;2024-02-15T14:24:58;2.60;;;2.40;;
7495;SDS011;3789;47.064;15.482;2024-02-15T14:27:26;3.50;;;2.47;;
7495;SDS011;3789;47.064;15.482;2024-02-15T14:29:57;5.13;;;2.77;;
7495;SDS011;3789;47.064;15.482;2024-02-15T14:32:45;2.97;;;2.30;;
7495;SDS011;3789;47.064;15.482;2024-02-15T14:35:33;2.90;;;2.37;;
7495;SDS011;3789;47.064;15.482;2024-02-15T14:38:09;3.27;;;2.30;;
7495;SDS011;3789;47.064;15.482;2024-02-15T14:40:43;2.30;;;2.10;;
7495;SDS011;3789;47.064;15.482;2024-02-15T14:43:26;2.43;;;2.07;;
7495;SDS011;3789;47.064;15.482;2024-02-15T14:46:15;5.00;;;2.50;;
7495;SDS011;3789;47.064;15.482;2024-02-15T14:48:43;3.60;;;2.33;;
7495;SDS011;3789;47.064;15.482;2024-02-15T14:51:16;3.27;;;2.20;;
7495;SDS011;3789;47.064;15.482;2024-02-15T14:53:50;2.87;;;2.23;;
7495;SDS011;3789;47.064;15.482;2024-02-15T14:56:22;3.57;;;1.93;;
7495;SDS011;3789;47.064;15.482;2024-02-15T14:58:52;3.07;;;1.97;;
7495;SDS011;3789;47.064;15.482;2024-02-15T15:01:28;2.83;;;2.23;;
7495;SDS011;3789;47.064;15.482;2024-02-15T15:03:56;2.43;;;2.20;;
7495;SDS011;3789;47.064;15.482;2024-02-15T15:06:29;4.07;;;2.20;;
7495;SDS011;3789;47.064;15.482;2024-02-15T15:09:17;2.13;;;1.67;;
7495;SDS011;3789;47.064;15.482;2024-02-15T15:12:06;4.17;;;2.07;;
7495;SDS011;3789;47.064;15.482;2024-02-15T15:14:54;2.83;;;2.20;;
7495;SDS011;3789;47.064;15.482;2024-02-15T15:17:28;5.23;;;2.80;;
7495;SDS011;3789;47.064;15.482;2024-02-15T15:19:58;3.20;;;2.57;;
7495;SDS011;3789;47.064;15.482;2024-02-15T15:22:27;4.07;;;2.10;;
7495;SDS011;3789;47.064;15.482;2024-02-15T15:25:00;4.43;;;2.47;;
7495;SDS011;3789;47.064;15.482;2024-02-15T15:27:31;5.17;;;2.90;;
7495;SDS011;3789;47.064;15.482;2024-02-15T15:30:01;4.80;;;2.50;;
7495;SDS011;3789;47.064;15.482;2024-02-15T15:32:39;4.07;;;2.60;;
7495;SDS011;3789;47.064;15.482;2024-02-15T15:35:12;4.50;;;2.77;;
7495;SDS011;3789;47.064;15.482;2024-02-15T15:37:44;3.80;;;2.50;;
7495;SDS011;3789;47.064;15.482;2024-02-15T15:40:14;3.00;;;2.57;;
7495;SDS011;3789;47.064;15.482;2024-02-15T15:42:45;5.30;;;2.37;;
7495;SDS011;3789;47.064;15.482;2024-02-15T15:45:15;3.63;;;2.63;;